createdAt,value
2018-06-12T00:01:36.103Z,20.36
2018-06-12T00:04:05.423Z,20.18
2018-06-12T00:06:34.823Z,20.23
2018-06-12T00:09:05.752Z,19.78
2018-06-12T00:11:35.104Z,20.33
2018-06-12T00:14:04.460Z,20.23
2018-06-12T00:16:33.740Z,20.25
2018-06-12T00:19:03.010Z,20.00
2018-06-12T00:21:32.280Z,20.22
2018-06-12T00:24:01.593Z,20.38
2018-06-12T00:26:30.865Z,20.28
2018-06-12T00:29:00.169Z,19.94
2018-06-12T00:31:29.443Z,20.22
2018-06-12T00:33:58.953Z,19.66
2018-06-12T00:36:28.273Z,20.12
2018-06-12T00:38:58.587Z,20.19
2018-06-12T00:41:27.856Z,19.88
2018-06-12T00:43:57.169Z,18.78
2018-06-12T00:46:26.493Z,19.27
2018-06-12T00:48:55.884Z,19.60
2018-06-12T00:51:25.185Z,19.11
2018-06-12T00:53:54.524Z,19.65
2018-06-12T00:56:35.854Z,19.53
2018-06-12T00:59:05.219Z,19.32
2018-06-12T01:01:34.683Z,19.38
2018-06-12T01:04:04.029Z,19.36
2018-06-12T01:06:33.316Z,19.50
2018-06-12T01:09:02.689Z,19.72
2018-06-12T01:11:32.099Z,19.54
2018-06-12T01:14:01.499Z,19.22
2018-06-12T01:16:30.838Z,19.09
2018-06-12T01:19:00.304Z,19.18
2018-06-12T01:21:29.602Z,19.13
2018-06-12T01:23:58.980Z,19.08
2018-06-12T01:26:28.276Z,18.95
2018-06-12T01:28:57.589Z,19.16
2018-06-12T01:31:26.924Z,19.51
2018-06-12T01:33:56.224Z,19.11
2018-06-12T01:36:25.540Z,18.86
2018-06-12T01:38:54.844Z,19.11
2018-06-12T01:41:24.177Z,19.34
2018-06-12T01:43:53.488Z,19.32
2018-06-12T01:46:22.833Z,19.05
2018-06-12T01:48:52.187Z,19.33
2018-06-12T01:51:21.517Z,18.73
2018-06-12T01:53:50.827Z,18.71
2018-06-12T01:56:20.217Z,19.12
2018-06-12T01:58:49.513Z,19.30
2018-06-12T02:01:18.832Z,19.32
2018-06-12T02:03:48.156Z,19.23
2018-06-12T02:06:17.440Z,19.08
2018-06-12T02:08:46.816Z,18.77
2018-06-12T02:11:16.124Z,18.83
2018-06-12T02:13:45.424Z,18.45
2018-06-12T02:16:14.724Z,18.76
2018-06-12T02:18:44.064Z,18.84
2018-06-12T02:21:13.444Z,18.77
2018-06-12T02:23:42.766Z,18.54
2018-06-12T02:26:12.112Z,18.55
2018-06-12T02:28:41.437Z,18.66
2018-06-12T02:31:10.733Z,18.23
2018-06-12T02:33:40.140Z,18.48
2018-06-12T02:36:09.463Z,18.72
2018-06-12T02:38:38.714Z,18.82
2018-06-12T02:41:08.077Z,18.61
2018-06-12T02:43:37.341Z,18.28
2018-06-12T02:46:06.678Z,18.47
2018-06-12T02:48:35.948Z,18.32
2018-06-12T02:51:05.205Z,18.34
2018-06-12T02:53:34.481Z,17.64
2018-06-12T02:56:03.744Z,18.13
2018-06-12T02:58:33.081Z,18.30
2018-06-12T03:01:02.385Z,18.33
2018-06-12T03:03:31.632Z,18.48
2018-06-12T03:06:00.993Z,18.19
2018-06-12T03:08:30.261Z,18.47
2018-06-12T03:10:59.584Z,18.25
2018-06-12T03:13:29.049Z,18.40
2018-06-12T03:15:58.380Z,18.36
2018-06-12T03:18:27.648Z,18.21
2018-06-12T03:20:56.969Z,18.29
2018-06-12T03:23:26.416Z,18.88
2018-06-12T03:25:58.365Z,18.23
2018-06-12T03:28:27.777Z,18.04
2018-06-12T03:30:57.042Z,17.89
2018-06-12T03:33:26.301Z,17.72
2018-06-12T03:35:55.681Z,17.20
2018-06-12T03:38:24.974Z,17.77
2018-06-12T03:40:54.288Z,16.72
2018-06-12T03:43:23.552Z,16.39
2018-06-12T03:45:52.897Z,17.22
2018-06-12T03:48:22.187Z,17.32
2018-06-12T03:50:51.476Z,17.42
2018-06-12T03:53:20.749Z,17.42
2018-06-12T03:55:50.074Z,17.69
2018-06-12T03:58:19.427Z,16.91
2018-06-12T04:00:48.763Z,17.45
2018-06-12T04:03:18.028Z,16.96
2018-06-12T04:05:47.360Z,17.80
2018-06-12T04:08:16.675Z,17.76
2018-06-12T04:10:45.982Z,17.01
2018-06-12T04:13:15.283Z,16.91
2018-06-12T04:15:44.614Z,16.67
2018-06-12T04:18:13.915Z,16.57
2018-06-12T04:20:43.266Z,16.64
2018-06-12T04:23:12.756Z,16.64
2018-06-12T04:25:42.049Z,16.91
2018-06-12T04:28:11.313Z,16.65
2018-06-12T04:30:40.680Z,16.65
2018-06-12T04:33:09.938Z,16.20
2018-06-12T04:35:39.287Z,16.19
2018-06-12T04:38:08.631Z,16.89
2018-06-12T04:40:37.988Z,17.28
2018-06-12T04:43:07.245Z,17.11
2018-06-12T04:45:36.541Z,17.18
2018-06-12T04:48:05.788Z,17.09
2018-06-12T04:50:35.064Z,17.14
2018-06-12T04:53:04.388Z,17.33
2018-06-12T04:55:33.712Z,17.39
2018-06-12T04:58:03.108Z,17.74
2018-06-12T05:00:32.451Z,16.98
2018-06-12T05:03:01.750Z,17.30
2018-06-12T05:05:31.082Z,17.73
2018-06-12T05:08:00.350Z,17.55
2018-06-12T05:10:29.677Z,17.60
2018-06-12T05:12:58.957Z,17.04
2018-06-12T05:15:28.353Z,18.05
2018-06-12T05:17:57.659Z,17.41
2018-06-12T05:20:28.311Z,18.03
2018-06-12T05:22:57.612Z,17.84
2018-06-12T05:25:26.890Z,18.38
2018-06-12T05:27:56.169Z,17.80
2018-06-12T05:30:25.457Z,17.50
2018-06-12T05:32:55.761Z,17.49
2018-06-12T05:35:25.120Z,17.94
2018-06-12T05:37:54.405Z,17.97
2018-06-12T05:40:23.847Z,17.97
2018-06-12T05:42:53.146Z,18.46
2018-06-12T05:45:22.812Z,18.64
2018-06-12T05:47:52.077Z,18.96
2018-06-12T05:50:21.620Z,18.30
2018-06-12T05:52:50.953Z,18.01
2018-06-12T05:55:20.407Z,18.01
2018-06-12T05:57:49.871Z,17.60
2018-06-12T06:00:19.222Z,18.15
2018-06-12T06:02:48.629Z,18.11
2018-06-12T06:05:17.947Z,18.25
2018-06-12T06:07:47.280Z,18.12
2018-06-12T06:10:16.746Z,18.45
2018-06-12T06:12:46.212Z,18.63
2018-06-12T06:15:15.528Z,18.70
2018-06-12T06:17:45.057Z,18.51
2018-06-12T06:20:14.624Z,18.02
2018-06-12T06:22:44.144Z,18.70
2018-06-12T06:25:13.580Z,18.99
2018-06-12T06:27:43.020Z,18.60
2018-06-12T06:30:12.340Z,18.46
2018-06-12T06:32:41.680Z,18.89
2018-06-12T06:35:11.044Z,18.68
2018-06-12T06:37:40.372Z,19.28
2018-06-12T06:40:09.675Z,18.26
2018-06-12T06:42:38.983Z,18.98
2018-06-12T06:45:08.302Z,19.12
2018-06-12T06:47:37.652Z,18.92
2018-06-12T06:50:07.004Z,19.32
2018-06-12T06:52:36.328Z,19.33
2018-06-12T06:55:06.475Z,19.27
2018-06-12T06:57:35.856Z,19.64
2018-06-12T07:00:05.473Z,19.24
2018-06-12T07:02:34.905Z,19.80
2018-06-12T07:05:04.216Z,19.31
2018-06-12T07:07:33.539Z,19.17
2018-06-12T07:10:02.862Z,19.69
2018-06-12T07:12:32.263Z,19.56
2018-06-12T07:15:01.597Z,19.26
2018-06-12T07:17:30.885Z,18.75
2018-06-12T07:20:00.231Z,19.13
2018-06-12T07:22:29.542Z,19.36
2018-06-12T07:24:58.946Z,19.15
2018-06-12T07:27:28.236Z,19.04
2018-06-12T07:29:57.573Z,19.15
2018-06-12T07:32:27.066Z,19.55
2018-06-12T07:34:56.397Z,19.86
2018-06-12T07:37:25.755Z,19.10
2018-06-12T07:39:55.185Z,18.98
2018-06-12T07:42:24.478Z,19.04
2018-06-12T07:44:53.819Z,19.26
2018-06-12T07:47:23.263Z,19.21
2018-06-12T07:49:52.574Z,18.46
2018-06-12T07:52:21.904Z,17.69
2018-06-12T07:54:51.303Z,18.58
2018-06-12T07:57:20.585Z,18.44
2018-06-12T07:59:49.926Z,18.64
2018-06-12T08:02:19.221Z,18.63
2018-06-12T08:04:48.547Z,17.84
2018-06-12T08:07:17.884Z,18.22
2018-06-12T08:09:47.244Z,17.83
2018-06-12T08:12:16.546Z,18.24
2018-06-12T08:14:45.860Z,18.00
2018-06-12T08:17:15.213Z,17.91
2018-06-12T08:19:44.504Z,18.39
2018-06-12T08:22:13.780Z,18.01
2018-06-12T08:24:43.084Z,18.56
2018-06-12T08:27:12.428Z,17.88
2018-06-12T08:29:41.716Z,17.91
2018-06-12T08:32:11.033Z,18.25
2018-06-12T08:34:40.317Z,18.01
2018-06-12T08:37:09.575Z,18.32
2018-06-12T08:39:38.920Z,17.95
2018-06-12T08:42:08.222Z,17.45
2018-06-12T08:44:37.548Z,17.81
2018-06-12T08:47:06.852Z,18.25
2018-06-12T08:49:36.160Z,18.27
2018-06-12T08:52:05.535Z,17.71
2018-06-12T08:54:34.791Z,17.20
2018-06-12T08:57:04.086Z,18.23
2018-06-12T08:59:33.469Z,17.57
2018-06-12T09:02:02.900Z,17.93
2018-06-12T09:04:32.221Z,17.78
2018-06-12T09:07:01.533Z,18.33
2018-06-12T09:09:30.800Z,18.13
2018-06-12T09:12:00.119Z,17.83
2018-06-12T09:14:29.457Z,17.69
2018-06-12T09:16:58.764Z,18.36
2018-06-12T09:19:28.073Z,18.09
2018-06-12T09:21:57.436Z,18.63
2018-06-12T09:24:26.758Z,17.89
2018-06-12T09:26:56.089Z,18.64
2018-06-12T09:29:25.376Z,18.38
2018-06-12T09:31:54.641Z,18.15
2018-06-12T09:34:34.745Z,18.94
2018-06-12T09:37:04.047Z,18.77
2018-06-12T09:39:33.542Z,19.80
2018-06-12T09:42:02.825Z,20.40
2018-06-12T09:44:32.242Z,22.43
2018-06-12T09:47:01.700Z,23.70
2018-06-12T09:49:31.037Z,24.44
2018-06-12T09:52:00.532Z,26.04
2018-06-12T09:54:29.886Z,26.68
2018-06-12T09:56:59.175Z,26.75
2018-06-12T09:59:28.535Z,27.93
2018-06-12T10:01:57.859Z,29.56
2018-06-12T10:04:27.306Z,27.87
2018-06-12T10:06:57.561Z,28.93
2018-06-12T10:09:26.834Z,28.50
2018-06-12T10:11:56.318Z,27.60
2018-06-12T10:14:25.596Z,26.47
2018-06-12T10:16:54.881Z,26.10
2018-06-12T10:19:24.244Z,26.08
2018-06-12T10:21:53.624Z,24.97
2018-06-12T10:24:22.926Z,25.98
2018-06-12T10:26:52.233Z,26.26
2018-06-12T10:29:21.705Z,25.78
2018-06-12T10:31:50.979Z,26.32
2018-06-12T10:34:20.289Z,26.01
2018-06-12T10:36:49.571Z,26.03
2018-06-12T10:39:18.907Z,25.75
2018-06-12T10:41:48.189Z,24.53
2018-06-12T10:44:17.449Z,23.19
2018-06-12T10:46:46.704Z,24.04
2018-06-12T10:49:15.968Z,24.10
2018-06-12T10:51:45.252Z,24.17
2018-06-12T10:54:14.512Z,24.27
2018-06-12T10:56:43.794Z,23.30
2018-06-12T10:59:13.063Z,23.07
2018-06-12T11:01:42.420Z,23.05
2018-06-12T11:04:11.705Z,23.71
2018-06-12T11:06:41.017Z,23.00
2018-06-12T11:09:10.296Z,23.50
2018-06-12T11:11:39.586Z,23.35
2018-06-12T11:14:08.935Z,23.76
2018-06-12T11:16:38.233Z,24.18
2018-06-12T11:19:07.585Z,23.84
2018-06-12T11:21:36.858Z,23.37
2018-06-12T11:24:06.165Z,23.72
2018-06-12T11:26:35.553Z,22.95
2018-06-12T11:29:04.874Z,23.96
2018-06-12T11:31:34.132Z,24.57
2018-06-12T11:34:03.513Z,23.84
2018-06-12T11:36:32.788Z,25.22
2018-06-12T11:39:02.064Z,25.92
2018-06-12T11:41:31.419Z,24.99
2018-06-12T11:44:00.764Z,24.91
2018-06-12T11:46:30.440Z,24.67
2018-06-12T11:48:59.714Z,24.31
2018-06-12T11:51:29.009Z,24.84
2018-06-12T11:53:58.252Z,25.17
2018-06-12T11:56:27.509Z,25.07
2018-06-12T11:58:56.773Z,24.80
2018-06-12T12:01:26.238Z,24.88
2018-06-12T12:03:55.503Z,24.42
2018-06-12T12:06:24.774Z,24.52
2018-06-12T12:08:54.032Z,23.21
2018-06-12T12:11:23.336Z,23.48
2018-06-12T12:13:52.688Z,23.62
2018-06-12T12:16:21.977Z,24.45
2018-06-12T12:18:51.239Z,23.88
2018-06-12T12:21:20.581Z,23.05
2018-06-12T12:23:49.896Z,22.90
2018-06-12T12:26:19.270Z,23.74
2018-06-12T12:28:48.580Z,23.48
2018-06-12T12:31:17.866Z,23.18
2018-06-12T12:33:47.184Z,23.82
2018-06-12T12:36:16.562Z,23.52
2018-06-12T12:38:47.047Z,23.38
2018-06-12T12:41:16.784Z,22.16
2018-06-12T12:43:46.129Z,22.75
2018-06-12T12:46:15.473Z,23.16
2018-06-12T12:48:45.765Z,23.30
2018-06-12T12:51:15.081Z,23.73
2018-06-12T12:53:44.339Z,23.12
2018-06-12T12:56:13.629Z,23.50
2018-06-12T12:58:42.890Z,23.49
2018-06-12T13:01:12.172Z,22.96
2018-06-12T13:03:41.487Z,23.55
2018-06-12T13:06:10.844Z,22.78
2018-06-12T13:08:40.148Z,23.77
2018-06-12T13:11:09.499Z,23.53
2018-06-12T13:13:38.784Z,23.15
2018-06-12T13:16:08.129Z,22.96
2018-06-12T13:18:37.434Z,22.85
2018-06-12T13:21:06.744Z,23.10
2018-06-12T13:23:38.568Z,23.71
2018-06-12T13:26:10.302Z,22.86
2018-06-12T13:28:40.014Z,22.29
2018-06-12T13:31:09.328Z,22.75
2018-06-12T13:33:38.710Z,22.22
2018-06-12T13:36:07.995Z,22.54
2018-06-12T13:38:37.416Z,23.36
2018-06-12T13:41:06.887Z,23.35
2018-06-12T13:43:36.205Z,23.55
2018-06-12T13:46:08.150Z,22.73
2018-06-12T13:48:38.369Z,22.45
2018-06-12T13:51:09.530Z,23.28
2018-06-12T13:53:38.808Z,23.40
2018-06-12T13:56:08.328Z,22.75
2018-06-12T13:58:37.996Z,22.34
2018-06-12T14:01:08.940Z,22.80
2018-06-12T14:03:38.980Z,23.01
2018-06-12T14:06:08.394Z,23.63
2018-06-12T14:08:37.712Z,23.66
2018-06-12T14:11:07.097Z,22.65
2018-06-12T14:13:36.511Z,23.27
2018-06-12T14:16:05.749Z,23.14
2018-06-12T14:18:35.089Z,23.21
2018-06-12T14:21:04.625Z,22.89
2018-06-12T14:23:33.894Z,22.74
2018-06-12T14:26:03.177Z,22.50
2018-06-12T14:28:32.520Z,22.42
2018-06-12T14:31:01.837Z,23.01
2018-06-12T14:33:31.192Z,22.52
2018-06-12T14:36:00.461Z,23.16
2018-06-12T14:38:29.840Z,22.50
2018-06-12T14:40:59.269Z,22.59
2018-06-12T14:43:28.598Z,23.42
2018-06-12T14:45:57.997Z,22.81
2018-06-12T14:48:27.356Z,22.11
2018-06-12T14:50:56.644Z,22.69
2018-06-12T14:53:27.025Z,22.71
2018-06-12T14:55:56.454Z,22.78
2018-06-12T14:58:26.467Z,22.74
2018-06-12T15:00:55.880Z,22.73
2018-06-12T15:03:25.200Z,22.19
2018-06-12T15:05:54.572Z,22.53
2018-06-12T15:08:23.909Z,23.10
2018-06-12T15:10:53.244Z,23.02
2018-06-12T15:13:22.540Z,22.69
2018-06-12T15:15:51.925Z,22.88
2018-06-12T15:18:21.283Z,22.41
2018-06-12T15:20:50.742Z,22.50
2018-06-12T15:23:20.092Z,22.35
2018-06-12T15:25:49.446Z,22.28
2018-06-12T15:28:18.988Z,22.75
2018-06-12T15:30:48.357Z,22.19
2018-06-12T15:33:17.879Z,22.37
2018-06-12T15:35:47.165Z,22.21
2018-06-12T15:38:16.440Z,22.53
2018-06-12T15:40:45.804Z,22.33
2018-06-12T15:43:15.065Z,22.16
2018-06-12T15:45:44.368Z,22.41
2018-06-12T15:48:13.752Z,21.84
2018-06-12T15:50:43.052Z,21.32
2018-06-12T15:53:12.330Z,22.28
2018-06-12T15:55:41.608Z,22.18
2018-06-12T15:58:10.943Z,21.66
2018-06-12T16:00:40.340Z,22.17
2018-06-12T16:03:10.850Z,22.52
2018-06-12T16:05:40.428Z,21.93
2018-06-12T16:08:09.732Z,21.63
2018-06-12T16:10:39.060Z,21.73
2018-06-12T16:13:08.493Z,21.77
2018-06-12T16:15:37.880Z,22.38
2018-06-12T16:18:07.185Z,21.16
2018-06-12T16:20:36.645Z,21.56
2018-06-12T16:23:08.148Z,21.79
2018-06-12T16:25:39.364Z,21.70
2018-06-12T16:28:09.568Z,22.05
2018-06-12T16:30:38.891Z,21.75
2018-06-12T16:33:08.200Z,22.23
2018-06-12T16:35:37.536Z,21.82
2018-06-12T16:38:06.866Z,22.23
2018-06-12T16:40:36.272Z,21.96
2018-06-12T16:43:05.585Z,21.98
2018-06-12T16:45:34.968Z,21.96
2018-06-12T16:48:04.547Z,21.20
2018-06-12T16:50:33.815Z,21.67
2018-06-12T16:53:03.119Z,22.04
2018-06-12T16:55:32.407Z,21.39
2018-06-12T16:58:01.749Z,21.24
2018-06-12T17:00:31.103Z,20.90
2018-06-12T17:03:00.384Z,20.89
2018-06-12T17:05:29.756Z,21.33
2018-06-12T17:07:59.046Z,19.96
2018-06-12T17:10:28.386Z,20.31
2018-06-12T17:12:57.672Z,20.43
2018-06-12T17:15:27.014Z,20.71
2018-06-12T17:17:56.461Z,20.44
2018-06-12T17:20:25.732Z,20.21
2018-06-12T17:22:55.086Z,19.58
2018-06-12T17:25:24.442Z,19.42
2018-06-12T17:27:53.744Z,20.09
2018-06-12T17:30:23.045Z,19.81
2018-06-12T17:32:52.377Z,19.49
2018-06-12T17:35:21.778Z,19.49
2018-06-12T17:37:51.063Z,19.83
2018-06-12T17:40:20.388Z,19.36
2018-06-12T17:42:49.748Z,19.37
2018-06-12T17:45:19.416Z,19.03
2018-06-12T17:47:48.768Z,19.49
2018-06-12T17:50:18.073Z,18.86
2018-06-12T17:52:47.568Z,19.16
2018-06-12T17:55:16.876Z,18.92
2018-06-12T17:57:46.205Z,18.64
2018-06-12T18:00:15.609Z,19.36
2018-06-12T18:02:45.101Z,19.23
2018-06-12T18:05:14.419Z,18.67
2018-06-12T18:07:43.848Z,18.73
2018-06-12T18:10:13.232Z,18.33
2018-06-12T18:12:42.575Z,18.68
2018-06-12T18:15:12.029Z,18.63
2018-06-12T18:17:41.432Z,18.53
2018-06-12T18:20:10.783Z,18.16
2018-06-12T18:22:40.164Z,17.81
2018-06-12T18:25:09.508Z,18.01
2018-06-12T18:27:38.866Z,17.96
2018-06-12T18:30:08.279Z,18.02
2018-06-12T18:32:37.604Z,17.95
2018-06-12T18:35:06.937Z,17.82
2018-06-12T18:37:36.260Z,17.48
2018-06-12T18:40:08.476Z,17.75
2018-06-12T18:42:37.816Z,17.91
2018-06-12T18:45:07.256Z,18.12
2018-06-12T18:47:40.641Z,18.68
2018-06-12T18:50:09.936Z,18.64
2018-06-12T18:52:39.304Z,18.62
2018-06-12T18:55:08.720Z,18.22
2018-06-12T18:57:38.648Z,18.75
2018-06-12T19:00:08.236Z,17.94
2018-06-12T19:02:37.532Z,17.93
2018-06-12T19:05:06.917Z,18.31
2018-06-12T19:07:36.200Z,18.51
2018-06-12T19:10:05.518Z,18.11
2018-06-12T19:12:34.929Z,18.12
2018-06-12T19:15:04.228Z,18.25
2018-06-12T19:17:33.511Z,17.82
2018-06-12T19:20:02.864Z,18.43
2018-06-12T19:22:32.183Z,18.38
2018-06-12T19:25:01.484Z,18.28
2018-06-12T19:27:30.789Z,18.71
2018-06-12T19:30:00.123Z,18.94
2018-06-12T19:32:29.411Z,18.63
2018-06-12T19:34:58.700Z,18.46
2018-06-12T19:37:28.068Z,18.22
2018-06-12T19:39:57.333Z,18.29
2018-06-12T19:42:26.631Z,18.25
2018-06-12T19:44:55.941Z,17.77
2018-06-12T19:47:25.344Z,18.12
2018-06-12T19:49:54.596Z,17.97
2018-06-12T19:52:23.864Z,17.35
2018-06-12T19:54:53.137Z,18.17
2018-06-12T19:57:23.517Z,17.90
2018-06-12T19:59:52.912Z,17.75
2018-06-12T20:02:22.240Z,18.44
2018-06-12T20:04:51.584Z,18.43
2018-06-12T20:07:21.893Z,18.61
2018-06-12T20:09:51.242Z,18.64
2018-06-12T20:12:20.669Z,18.14
2018-06-12T20:14:49.997Z,18.06
2018-06-12T20:17:19.370Z,18.41
2018-06-12T20:19:48.728Z,17.97
2018-06-12T20:22:18.123Z,17.87
2018-06-12T20:24:47.672Z,18.19
2018-06-12T20:27:17.040Z,18.29
2018-06-12T20:29:46.345Z,17.98
2018-06-12T20:32:15.746Z,18.31
2018-06-12T20:34:45.294Z,17.96
2018-06-12T20:37:14.848Z,17.68
2018-06-12T20:39:44.338Z,18.14
2018-06-12T20:42:14.111Z,18.04
2018-06-12T20:44:43.917Z,18.23
2018-06-12T20:47:13.419Z,18.12
2018-06-12T20:49:42.740Z,18.07
2018-06-12T20:52:12.120Z,17.96
2018-06-12T20:54:41.511Z,18.24
2018-06-12T20:57:10.851Z,18.09
2018-06-12T20:59:40.212Z,18.34
2018-06-12T21:02:09.844Z,17.99
2018-06-12T21:04:39.196Z,17.78
2018-06-12T21:07:08.613Z,17.74
2018-06-12T21:09:38.498Z,17.55
2018-06-12T21:12:08.024Z,17.58
2018-06-12T21:14:37.745Z,16.62
2018-06-12T21:17:07.326Z,17.13
2018-06-12T21:19:36.656Z,17.05
2018-06-12T21:22:06.148Z,16.91
2018-06-12T21:24:35.773Z,17.51
2018-06-12T21:27:05.128Z,17.31
2018-06-12T21:29:34.438Z,16.74
2018-06-12T21:32:03.792Z,17.08
2018-06-12T21:34:33.079Z,17.67
2018-06-12T21:37:02.432Z,16.84
2018-06-12T21:39:31.780Z,17.29
2018-06-12T21:42:01.174Z,16.87
2018-06-12T21:44:30.484Z,17.17
2018-06-12T21:46:59.800Z,17.15
2018-06-12T21:49:29.264Z,17.70
2018-06-12T21:51:58.522Z,17.51
2018-06-12T21:54:27.865Z,17.33
2018-06-12T21:56:57.388Z,17.54
2018-06-12T21:59:26.726Z,16.99
2018-06-12T22:01:56.120Z,17.27
2018-06-12T22:04:25.410Z,17.31
2018-06-12T22:06:54.699Z,17.16
2018-06-12T22:09:23.962Z,17.28
2018-06-12T22:11:53.253Z,16.90
2018-06-12T22:14:22.801Z,17.01
2018-06-12T22:16:52.120Z,17.17
2018-06-12T22:19:21.402Z,16.73
2018-06-12T22:21:50.682Z,16.95
2018-06-12T22:24:19.949Z,16.93
2018-06-12T22:26:49.294Z,17.13
2018-06-12T22:29:18.644Z,17.12
2018-06-12T22:31:47.901Z,17.24
2018-06-12T22:34:17.247Z,17.50
2018-06-12T22:36:46.501Z,16.93
2018-06-12T22:39:15.832Z,17.27
2018-06-12T22:41:45.139Z,17.58
2018-06-12T22:44:14.500Z,16.93
2018-06-12T22:46:43.770Z,16.71
2018-06-12T22:49:13.070Z,16.72
2018-06-12T22:51:42.371Z,17.06
2018-06-12T22:54:11.679Z,17.01
2018-06-12T22:56:41.020Z,16.94
2018-06-12T22:59:10.303Z,17.40
2018-06-12T23:01:39.592Z,17.10
2018-06-12T23:04:08.880Z,17.17
2018-06-12T23:06:38.153Z,17.07
2018-06-12T23:09:08.449Z,17.12
2018-06-12T23:11:37.880Z,17.50
2018-06-12T23:14:07.140Z,17.09
2018-06-12T23:16:36.466Z,16.82
2018-06-12T23:19:05.812Z,17.27
2018-06-12T23:21:48.159Z,16.28
2018-06-12T23:24:17.436Z,16.73
2018-06-12T23:26:46.807Z,16.87
2018-06-12T23:29:16.125Z,16.22
2018-06-12T23:31:45.528Z,16.93
2018-06-12T23:34:14.871Z,16.65
2018-06-12T23:36:44.453Z,16.49
2018-06-12T23:39:13.801Z,16.76
2018-06-12T23:41:43.170Z,16.79
2018-06-12T23:44:12.485Z,16.83
2018-06-12T23:46:41.817Z,17.04
2018-06-12T23:49:11.194Z,16.71
2018-06-12T23:51:40.506Z,16.96
2018-06-12T23:54:09.847Z,17.03
2018-06-12T23:56:39.168Z,17.02
2018-06-12T23:59:08.525Z,17.00
